Time;durP1;ratioP1;P1;durP2;ratioP2;P2;SDS_P1;SDS_P2;PMS_P1;PMS_P2;Temp;Humidity;BMP_temperature;BMP_pressure;BME280_temperature;BME280_humidity;BME280_pressure;Samples;Min_cycle;Max_cycle;Signal;HPM_P1;HPM_P2
2022/01/01 00:01:41;;;;;;;73.07;48.97;;;;;;;;;;5076563;28;20035;-88
2022/01/01 00:04:07;;;;;;;78.97;49.08;;;;;;;;;;5091645;28;20046;-86
2022/01/01 00:06:33;;;;;;;69.72;43.72;;;;;;;;;;5089228;28;20509;-87
2022/01/01 00:08:59;;;;;;;72.80;52.20;;;;;;;;;;5071674;28;20036;-87
2022/01/01 00:11:25;;;;;;;69.75;42.38;;;;;;;;;;5089916;28;20616;-87
2022/01/01 00:13:52;;;;;;;62.22;39.35;;;;;;;;;;5090530;28;20044;-86
2022/01/01 00:16:18;;;;;;;56.00;32.67;;;;;;;;;;5073722;28;20100;-88
2022/01/01 00:18:44;;;;;;;63.97;37.53;;;;;;;;;;5072569;28;20036;-88
2022/01/01 00:21:10;;;;;;;88.88;58.05;;;;;;;;;;5076595;28;20497;-88
2022/01/01 00:23:36;;;;;;;55.78;33.70;;;;;;;;;;5069643;28;20036;-88
2022/01/01 00:26:02;;;;;;;57.05;33.80;;;;;;;;;;5086174;28;20132;-87
2022/01/01 00:28:28;;;;;;;51.83;30.30;;;;;;;;;;5073276;28;20044;-88
2022/01/01 00:30:54;;;;;;;53.25;32.33;;;;;;;;;;5086054;28;20509;-88
2022/01/01 00:33:20;;;;;;;47.70;27.38;;;;;;;;;;5078130;28;20066;-88
2022/01/01 00:35:46;;;;;;;53.53;27.73;;;;;;;;;;5094846;28;20040;-88
2022/01/01 00:38:12;;;;;;;49.22;27.00;;;;;;;;;;5080301;28;20079;-87
2022/01/01 00:40:38;;;;;;;52.10;27.55;;;;;;;;;;5067425;28;20127;-88
2022/01/01 00:43:04;;;;;;;57.60;32.03;;;;;;;;;;5069055;28;20040;-87
2022/01/01 00:45:30;;;;;;;53.60;30.75;;;;;;;;;;5074320;28;20036;-87
2022/01/01 00:47:56;;;;;;;51.25;28.58;;;;;;;;;;5091284;28;20126;-87
2022/01/01 00:50:22;;;;;;;56.78;32.50;;;;;;;;;;5094479;28;20073;-88
2022/01/01 00:52:50;;;;;;;66.18;35.40;;;;;;;;;;5076756;28;20470;-86
2022/01/01 00:55:16;;;;;;;61.53;37.28;;;;;;;;;;5079623;28;20042;-87
2022/01/01 00:57:42;;;;;;;61.35;36.00;;;;;;;;;;5102544;27;20091;-85
2022/01/01 01:00:08;;;;;;;67.53;40.20;;;;;;;;;;5085034;28;20046;-88
2022/01/01 01:02:34;;;;;;;69.85;41.00;;;;;;;;;;5112461;28;20053;-88
2022/01/01 01:05:00;;;;;;;70.80;41.53;;;;;;;;;;5072994;28;20100;-87
2022/01/01 01:07:26;;;;;;;71.13;43.08;;;;;;;;;;5069340;28;20497;-86
2022/01/01 01:09:52;;;;;;;67.47;41.50;;;;;;;;;;5075941;28;20035;-85
2022/01/01 01:12:24;;;;;;;77.05;45.97;;;;;;;;;;5071410;28;20085;-86
2022/01/01 01:14:51;;;;;;;75.95;45.90;;;;;;;;;;5075260;28;20044;-88
2022/01/01 01:17:17;;;;;;;75.60;46.40;;;;;;;;;;5068915;28;20058;-87
2022/01/01 01:19:43;;;;;;;73.47;48.17;;;;;;;;;;5073043;28;20052;-87
2022/01/01 01:22:09;;;;;;;75.47;47.78;;;;;;;;;;5098008;28;20516;-88
2022/01/01 01:24:35;;;;;;;82.57;47.63;;;;;;;;;;5080654;28;20035;-88
2022/01/01 01:27:03;;;;;;;77.13;46.78;;;;;;;;;;5098378;28;20765;-87
2022/01/01 01:29:31;;;;;;;75.93;47.25;;;;;;;;;;5080232;28;20036;-87
2022/01/01 01:31:57;;;;;;;88.07;51.25;;;;;;;;;;5097848;28;20123;-87
2022/01/01 01:34:23;;;;;;;79.03;47.75;;;;;;;;;;5081033;28;20130;-87
2022/01/01 01:36:49;;;;;;;81.53;49.03;;;;;;;;;;5078439;28;20625;-87
2022/01/01 01:39:15;;;;;;;80.50;45.92;;;;;;;;;;5074023;28;20044;-87
2022/01/01 01:41:43;;;;;;;83.43;48.33;;;;;;;;;;5088005;28;20090;-87
2022/01/01 01:44:24;;;;;;;78.13;46.75;;;;;;;;;;5097868;28;20069;-87
2022/01/01 01:46:50;;;;;;;80.95;48.22;;;;;;;;;;5096701;28;20065;-87
2022/01/01 01:49:16;;;;;;;78.20;49.25;;;;;;;;;;5080998;28;20036;-86
2022/01/01 01:51:42;;;;;;;92.35;52.88;;;;;;;;;;5097501;28;20039;-87
2022/01/01 01:54:09;;;;;;;79.82;49.10;;;;;;;;;;5081071;28;20501;-87
2022/01/01 01:56:35;;;;;;;82.93;47.58;;;;;;;;;;5092303;28;20505;-87
2022/01/01 01:59:01;;;;;;;90.15;50.42;;;;;;;;;;5073784;28;20046;-88
2022/01/01 02:01:27;;;;;;;92.10;49.78;;;;;;;;;;5080516;28;20044;-87
2022/01/01 02:03:56;;;;;;;90.30;51.13;;;;;;;;;;5120056;27;20038;-83
2022/01/01 02:06:23;;;;;;;84.72;49.53;;;;;;;;;;5097642;27;20091;-81
2022/01/01 02:08:50;;;;;;;84.35;50.90;;;;;;;;;;5081842;28;20039;-86
2022/01/01 02:11:17;;;;;;;80.85;48.97;;;;;;;;;;5080895;28;20044;-87
2022/01/01 02:18:49;;;;;;;103.05;60.13;;;;;;;;;;5086702;28;20051;-87
2022/01/01 02:21:15;;;;;;;103.38;61.67;;;;;;;;;;5085109;28;20402;-87
2022/01/01 02:23:42;;;;;;;121.80;70.53;;;;;;;;;;5073074;28;20028;-88
2022/01/01 02:26:11;;;;;;;146.05;83.70;;;;;;;;;;5079886;28;20498;-87
2022/01/01 02:28:39;;;;;;;120.05;67.85;;;;;;;;;;5089436;28;20110;-87
2022/01/01 02:31:05;;;;;;;118.10;70.28;;;;;;;;;;5088940;27;20058;-86
2022/01/01 02:33:32;;;;;;;99.43;61.45;;;;;;;;;;5099122;27;20028;-83
2022/01/01 02:35:58;;;;;;;102.93;60.63;;;;;;;;;;5071621;28;20036;-86
2022/01/01 02:38:24;;;;;;;101.03;63.28;;;;;;;;;;5077051;28;20099;-86
2022/01/01 02:44:05;;;;;;;106.85;60.63;;;;;;;;;;5067700;28;20051;-87
2022/01/01 02:46:32;;;;;;;104.80;64.45;;;;;;;;;;5079054;28;20039;-88
2022/01/01 02:48:58;;;;;;;103.53;60.50;;;;;;;;;;5065249;28;20036;-87
2022/01/01 02:51:24;;;;;;;102.03;60.22;;;;;;;;;;5076865;28;20042;-88
2022/01/01 02:53:50;;;;;;;96.50;56.75;;;;;;;;;;5080189;28;20035;-87
2022/01/01 02:56:16;;;;;;;103.95;61.08;;;;;;;;;;5079917;28;20038;-87
2022/01/01 02:58:42;;;;;;;102.65;58.72;;;;;;;;;;5095254;28;20505;-87
2022/01/01 03:01:08;;;;;;;106.10;62.45;;;;;;;;;;5090832;28;20043;-87
2022/01/01 03:03:34;;;;;;;97.57;61.92;;;;;;;;;;5070970;28;20036;-87
2022/01/01 03:06:00;;;;;;;106.85;57.78;;;;;;;;;;5079500;28;20046;-88
2022/01/01 03:08:26;;;;;;;96.35;58.15;;;;;;;;;;5096877;28;20057;-88
2022/01/01 03:10:52;;;;;;;106.35;62.35;;;;;;;;;;5079665;28;20051;-87
2022/01/01 03:13:18;;;;;;;104.45;62.80;;;;;;;;;;5095883;28;20043;-86
2022/01/01 03:15:44;;;;;;;98.55;59.63;;;;;;;;;;5095933;28;20393;-86
2022/01/01 03:18:11;;;;;;;109.45;63.85;;;;;;;;;;5104938;27;20027;-82
2022/01/01 03:20:37;;;;;;;98.88;59.50;;;;;;;;;;5104830;27;20027;-82
2022/01/01 03:23:03;;;;;;;106.07;62.80;;;;;;;;;;5105184;27;20046;-83
2022/01/01 03:25:29;;;;;;;104.50;60.25;;;;;;;;;;5077245;28;20040;-87
2022/01/01 03:27:56;;;;;;;98.43;62.40;;;;;;;;;;5075859;28;20040;-87
2022/01/01 03:30:22;;;;;;;102.90;63.35;;;;;;;;;;5079071;28;20031;-87
2022/01/01 03:32:48;;;;;;;108.00;62.72;;;;;;;;;;5078672;28;20028;-87
2022/01/01 03:35:14;;;;;;;104.38;61.30;;;;;;;;;;5079188;28;20050;-87
2022/01/01 03:37:40;;;;;;;105.75;61.58;;;;;;;;;;5079043;28;20035;-86
2022/01/01 03:40:06;;;;;;;104.85;61.22;;;;;;;;;;5078288;28;20043;-87
2022/01/01 03:42:32;;;;;;;103.38;61.20;;;;;;;;;;5095129;28;20045;-86
2022/01/01 03:44:59;;;;;;;100.38;61.90;;;;;;;;;;5095050;28;20043;-85
2022/01/01 03:47:25;;;;;;;98.40;60.08;;;;;;;;;;5078482;28;20043;-85
2022/01/01 03:49:51;;;;;;;98.00;58.78;;;;;;;;;;5078638;28;20039;-86
2022/01/01 03:52:17;;;;;;;106.10;62.25;;;;;;;;;;5061339;28;20068;-86
2022/01/01 03:54:43;;;;;;;102.70;59.00;;;;;;;;;;5058502;28;20468;-86
2022/01/01 03:57:09;;;;;;;102.72;60.95;;;;;;;;;;5073129;28;20047;-87
2022/01/01 03:59:35;;;;;;;96.10;58.28;;;;;;;;;;5078624;28;20046;-87
2022/01/01 04:02:01;;;;;;;99.30;59.58;;;;;;;;;;5078233;28;20123;-87
2022/01/01 04:04:27;;;;;;;98.82;59.10;;;;;;;;;;5078066;28;20075;-87
2022/01/01 04:06:53;;;;;;;100.18;60.13;;;;;;;;;;5095246;28;20035;-87
2022/01/01 04:09:19;;;;;;;97.97;58.83;;;;;;;;;;5063716;28;20043;-86
2022/01/01 04:11:45;;;;;;;95.25;58.00;;;;;;;;;;5074528;28;20491;-85
2022/01/01 04:14:14;;;;;;;93.65;56.15;;;;;;;;;;5088399;28;20040;-85
2022/01/01 04:16:50;;;;;;;95.10;57.00;;;;;;;;;;5077976;28;20039;-87
2022/01/01 04:19:16;;;;;;;95.43;56.40;;;;;;;;;;5064587;28;20510;-87
2022/01/01 04:21:42;;;;;;;94.20;56.20;;;;;;;;;;5083296;28;20047;-86
2022/01/01 04:24:08;;;;;;;87.45;52.88;;;;;;;;;;5095131;28;20138;-87
2022/01/01 04:26:34;;;;;;;93.53;54.72;;;;;;;;;;5095326;28;20071;-87
2022/01/01 04:29:00;;;;;;;85.30;53.67;;;;;;;;;;5094525;28;20086;-86
2022/01/01 04:31:26;;;;;;;86.20;54.50;;;;;;;;;;5078455;28;20446;-87
2022/01/01 04:33:52;;;;;;;95.00;52.72;;;;;;;;;;5094722;28;20035;-86
2022/01/01 04:36:19;;;;;;;86.57;52.95;;;;;;;;;;5086012;28;20028;-87
2022/01/01 04:38:45;;;;;;;88.53;53.45;;;;;;;;;;5077955;28;20050;-87
2022/01/01 04:41:15;;;;;;;87.85;52.65;;;;;;;;;;5077571;28;20080;-86
2022/01/01 04:43:41;;;;;;;95.15;53.72;;;;;;;;;;5094951;28;20123;-86
2022/01/01 04:46:07;;;;;;;95.95;53.80;;;;;;;;;;5094474;28;20043;-86
2022/01/01 04:48:37;;;;;;;94.68;53.60;;;;;;;;;;5094866;28;20042;-87
2022/01/01 04:51:07;;;;;;;87.20;53.22;;;;;;;;;;5058565;28;20036;-86
2022/01/01 04:53:34;;;;;;;84.57;50.50;;;;;;;;;;5057582;28;20177;-88
2022/01/01 04:56:04;;;;;;;86.32;51.30;;;;;;;;;;5057688;28;20047;-87
2022/01/01 04:58:30;;;;;;;89.47;51.83;;;;;;;;;;5074187;28;20047;-87
2022/01/01 05:00:56;;;;;;;93.38;53.72;;;;;;;;;;5074211;28;20035;-88
2022/01/01 05:03:22;;;;;;;97.65;53.83;;;;;;;;;;5077682;28;20039;-87
2022/01/01 05:05:48;;;;;;;84.53;50.63;;;;;;;;;;5072529;28;20036;-87
2022/01/01 05:08:14;;;;;;;84.07;51.70;;;;;;;;;;5076811;28;20416;-86
2022/01/01 05:10:40;;;;;;;84.75;52.53;;;;;;;;;;5070670;28;20387;-86
2022/01/01 05:13:06;;;;;;;84.72;50.45;;;;;;;;;;5084369;28;20036;-87
2022/01/01 05:15:32;;;;;;;89.57;51.42;;;;;;;;;;5070530;28;20036;-87
2022/01/01 05:17:58;;;;;;;82.68;50.67;;;;;;;;;;5088425;28;20046;-87
2022/01/01 05:20:24;;;;;;;87.13;50.00;;;;;;;;;;5089430;28;20039;-87
2022/01/01 05:22:50;;;;;;;89.32;51.80;;;;;;;;;;5076794;28;20039;-87
2022/01/01 05:25:16;;;;;;;90.18;51.03;;;;;;;;;;5069194;28;20078;-87
2022/01/01 05:27:43;;;;;;;83.75;49.13;;;;;;;;;;5085814;28;20066;-87
2022/01/01 05:30:10;;;;;;;86.43;48.38;;;;;;;;;;5073100;28;20084;-85
2022/01/01 05:32:36;;;;;;;81.88;46.30;;;;;;;;;;5057189;28;20507;-86
2022/01/01 05:35:02;;;;;;;81.45;44.35;;;;;;;;;;5076143;28;20174;-85
2022/01/01 05:37:28;;;;;;;72.22;44.20;;;;;;;;;;5107329;27;20749;-82
2022/01/01 05:39:54;;;;;;;77.35;40.90;;;;;;;;;;5102201;27;20099;-81
2022/01/01 05:42:20;;;;;;;70.72;40.60;;;;;;;;;;5103271;27;20020;-80
2022/01/01 05:44:46;;;;;;;69.07;35.05;;;;;;;;;;5088140;28;20040;-85
2022/01/01 05:47:12;;;;;;;67.25;33.50;;;;;;;;;;5076519;28;20043;-85
2022/01/01 05:49:38;;;;;;;64.65;32.80;;;;;;;;;;5093036;28;20120;-86
2022/01/01 05:52:04;;;;;;;63.55;31.23;;;;;;;;;;5075434;28;20085;-86
2022/01/01 05:54:30;;;;;;;60.40;31.77;;;;;;;;;;5093211;28;20522;-86
2022/01/01 05:56:56;;;;;;;62.92;29.45;;;;;;;;;;5076349;28;20067;-86
2022/01/01 05:59:22;;;;;;;55.08;29.00;;;;;;;;;;5076575;28;20058;-86
2022/01/01 06:01:48;;;;;;;54.30;29.33;;;;;;;;;;5076509;28;20039;-85
2022/01/01 06:04:14;;;;;;;53.75;27.80;;;;;;;;;;5079847;28;20040;-85
2022/01/01 06:06:40;;;;;;;56.40;28.05;;;;;;;;;;5103457;28;20040;-83
2022/01/01 06:09:06;;;;;;;53.25;26.08;;;;;;;;;;5106312;28;20036;-84
2022/01/01 06:11:32;;;;;;;50.95;24.73;;;;;;;;;;5096313;28;20044;-86
2022/01/01 06:13:58;;;;;;;49.80;23.52;;;;;;;;;;5080236;28;20046;-87
2022/01/01 06:16:24;;;;;;;44.33;22.45;;;;;;;;;;5073052;28;20440;-86
2022/01/01 06:18:50;;;;;;;49.58;23.20;;;;;;;;;;5060061;28;20360;-87
2022/01/01 06:21:16;;;;;;;53.75;26.17;;;;;;;;;;5067050;28;20039;-86
2022/01/01 06:23:42;;;;;;;45.50;24.00;;;;;;;;;;5080237;28;20035;-86
2022/01/01 06:26:08;;;;;;;51.80;25.20;;;;;;;;;;5091280;28;20460;-86
2022/01/01 06:28:34;;;;;;;50.15;21.48;;;;;;;;;;5069684;28;20398;-86
2022/01/01 06:31:00;;;;;;;51.35;24.27;;;;;;;;;;5096241;28;20035;-86
2022/01/01 06:33:26;;;;;;;51.42;25.10;;;;;;;;;;5076274;28;20044;-85
2022/01/01 06:35:54;;;;;;;49.47;22.70;;;;;;;;;;5088734;28;20046;-87
2022/01/01 06:38:20;;;;;;;42.05;22.83;;;;;;;;;;5084401;28;20043;-86
2022/01/01 06:40:46;;;;;;;49.13;23.30;;;;;;;;;;5069505;28;20044;-86
2022/01/01 06:43:14;;;;;;;41.70;21.90;;;;;;;;;;5079294;28;20047;-86
2022/01/01 06:45:41;;;;;;;50.72;21.88;;;;;;;;;;5079374;28;20401;-86
2022/01/01 06:48:07;;;;;;;53.60;25.27;;;;;;;;;;5079469;28;20036;-86
2022/01/01 06:50:33;;;;;;;48.22;24.77;;;;;;;;;;5070520;28;20040;-86
2022/01/01 06:52:59;;;;;;;47.28;24.42;;;;;;;;;;5091366;28;20043;-86
2022/01/01 06:55:25;;;;;;;49.83;24.52;;;;;;;;;;5078856;28;20192;-86
2022/01/01 06:57:51;;;;;;;55.08;26.83;;;;;;;;;;5079182;28;20497;-87
2022/01/01 07:00:17;;;;;;;45.70;23.38;;;;;;;;;;5079416;28;20193;-86
2022/01/01 07:02:44;;;;;;;50.15;23.63;;;;;;;;;;5078817;28;20047;-86
2022/01/01 07:05:10;;;;;;;45.03;24.42;;;;;;;;;;5095895;28;20098;-86
2022/01/01 07:07:36;;;;;;;50.95;24.42;;;;;;;;;;5078860;28;20123;-86
2022/01/01 07:10:06;;;;;;;58.17;27.35;;;;;;;;;;5069985;28;20031;-86
2022/01/01 07:12:33;;;;;;;59.03;25.23;;;;;;;;;;5078780;28;20405;-85
2022/01/01 07:14:59;;;;;;;52.30;26.67;;;;;;;;;;5094833;28;20429;-86
2022/01/01 07:17:25;;;;;;;58.53;26.33;;;;;;;;;;5078209;28;20093;-86
2022/01/01 07:19:51;;;;;;;49.47;23.33;;;;;;;;;;5095275;28;20487;-87
2022/01/01 07:22:17;;;;;;;51.88;23.58;;;;;;;;;;5078624;28;20068;-86
2022/01/01 07:24:44;;;;;;;49.00;23.27;;;;;;;;;;5095805;28;20416;-86
2022/01/01 07:27:11;;;;;;;47.20;24.23;;;;;;;;;;5078620;28;20565;-85
2022/01/01 07:29:37;;;;;;;49.25;24.55;;;;;;;;;;5095630;28;20084;-87
2022/01/01 07:32:03;;;;;;;51.35;24.27;;;;;;;;;;5093891;28;20456;-86
2022/01/01 07:34:29;;;;;;;47.88;24.02;;;;;;;;;;5077054;28;20044;-86
2022/01/01 07:36:55;;;;;;;47.75;24.60;;;;;;;;;;5067861;28;20410;-85
2022/01/01 07:39:21;;;;;;;51.47;25.30;;;;;;;;;;5073769;28;20512;-85
2022/01/01 07:41:47;;;;;;;52.20;23.52;;;;;;;;;;5078304;28;20506;-86
2022/01/01 07:44:13;;;;;;;52.30;24.63;;;;;;;;;;5077988;28;20070;-85
2022/01/01 07:46:39;;;;;;;45.05;25.15;;;;;;;;;;5078798;28;20130;-85
2022/01/01 07:49:05;;;;;;;50.90;25.63;;;;;;;;;;5078035;28;20514;-85
2022/01/01 07:51:31;;;;;;;49.28;26.08;;;;;;;;;;5077792;28;20024;-86
2022/01/01 07:53:57;;;;;;;47.05;25.30;;;;;;;;;;5095482;28;20422;-85
2022/01/01 07:56:23;;;;;;;53.20;26.38;;;;;;;;;;5084212;28;20180;-84
2022/01/01 07:58:49;;;;;;;49.58;25.95;;;;;;;;;;5099417;27;20099;-81
2022/01/01 08:01:15;;;;;;;53.42;27.20;;;;;;;;;;5103196;28;20031;-83
2022/01/01 08:03:41;;;;;;;50.42;27.45;;;;;;;;;;5085362;28;20034;-84
2022/01/01 08:06:07;;;;;;;54.08;28.00;;;;;;;;;;5082807;28;20040;-85
2022/01/01 08:08:33;;;;;;;55.97;27.30;;;;;;;;;;5088797;28;20043;-86
2022/01/01 08:10:59;;;;;;;57.70;27.92;;;;;;;;;;5073989;28;20044;-86
2022/01/01 08:13:25;;;;;;;54.97;28.38;;;;;;;;;;5069288;28;20040;-86
2022/01/01 08:15:52;;;;;;;59.63;30.27;;;;;;;;;;5079628;28;20043;-86
2022/01/01 08:18:18;;;;;;;59.65;27.75;;;;;;;;;;5076634;28;20051;-87
2022/01/01 08:20:44;;;;;;;59.75;30.77;;;;;;;;;;5076021;28;20116;-86
2022/01/01 08:23:11;;;;;;;52.33;28.63;;;;;;;;;;5077081;28;20039;-87
2022/01/01 08:25:37;;;;;;;55.50;30.55;;;;;;;;;;5070663;28;20081;-85
2022/01/01 08:28:03;;;;;;;59.25;31.42;;;;;;;;;;5077286;28;20078;-86
2022/01/01 08:30:29;;;;;;;58.28;29.27;;;;;;;;;;5077684;28;20042;-86
2022/01/01 08:33:01;;;;;;;58.45;29.88;;;;;;;;;;5081441;28;20035;-86
2022/01/01 08:35:27;;;;;;;58.38;31.10;;;;;;;;;;5068763;28;20123;-86
2022/01/01 08:37:53;;;;;;;57.60;30.17;;;;;;;;;;5071887;28;20094;-85
2022/01/01 08:40:22;;;;;;;56.90;30.15;;;;;;;;;;5076970;28;20040;-86
2022/01/01 08:42:51;;;;;;;55.28;29.13;;;;;;;;;;5078480;28;20126;-87
2022/01/01 08:45:17;;;;;;;57.80;29.60;;;;;;;;;;5071634;28;20593;-85
2022/01/01 08:47:43;;;;;;;60.60;30.35;;;;;;;;;;5058785;28;20126;-86
2022/01/01 08:50:09;;;;;;;57.53;28.35;;;;;;;;;;5069950;28;20044;-85
2022/01/01 08:52:35;;;;;;;48.65;27.35;;;;;;;;;;5077763;28;20126;-86
2022/01/01 08:55:01;;;;;;;52.67;29.33;;;;;;;;;;5093983;28;20131;-86
2022/01/01 08:57:29;;;;;;;51.50;29.05;;;;;;;;;;5077129;28;20093;-87
2022/01/01 08:59:55;;;;;;;45.47;26.48;;;;;;;;;;5093681;28;20048;-87
2022/01/01 09:02:21;;;;;;;56.53;27.25;;;;;;;;;;5077101;28;20482;-86
2022/01/01 09:04:47;;;;;;;52.63;28.02;;;;;;;;;;5072933;28;20059;-86
2022/01/01 09:07:13;;;;;;;50.17;27.58;;;;;;;;;;5058178;28;20044;-86
2022/01/01 09:09:40;;;;;;;53.72;28.63;;;;;;;;;;5079072;28;20042;-86
2022/01/01 09:12:10;;;;;;;47.25;27.33;;;;;;;;;;5077759;28;20084;-86
2022/01/01 09:14:36;;;;;;;46.88;27.20;;;;;;;;;;5076900;28;20039;-86
2022/01/01 09:17:02;;;;;;;45.08;27.30;;;;;;;;;;5084995;27;20035;-82
2022/01/01 09:19:28;;;;;;;48.38;27.05;;;;;;;;;;5103169;27;20023;-83
2022/01/01 09:21:54;;;;;;;47.78;27.00;;;;;;;;;;5112326;28;20039;-87
2022/01/01 09:24:20;;;;;;;42.90;25.35;;;;;;;;;;5079327;28;20398;-86
2022/01/01 09:26:46;;;;;;;51.42;26.30;;;;;;;;;;5094536;28;20032;-86
2022/01/01 09:29:12;;;;;;;43.30;26.65;;;;;;;;;;5079147;28;20036;-86
2022/01/01 09:31:39;;;;;;;42.70;24.02;;;;;;;;;;5094819;28;20031;-86
2022/01/01 09:34:05;;;;;;;43.08;25.33;;;;;;;;;;5095532;28;20036;-86
2022/01/01 09:36:32;;;;;;;44.15;25.33;;;;;;;;;;5076096;28;20036;-86
2022/01/01 09:38:58;;;;;;;42.42;23.83;;;;;;;;;;5081797;28;20042;-86
2022/01/01 09:41:24;;;;;;;37.10;23.55;;;;;;;;;;5098634;28;20039;-85
2022/01/01 09:43:53;;;;;;;32.70;20.65;;;;;;;;;;5082888;28;20115;-84
2022/01/01 09:46:18;;;;;;;34.63;20.10;;;;;;;;;;5105182;28;20039;-83
2022/01/01 09:48:45;;;;;;;33.42;19.63;;;;;;;;;;5120255;28;20044;-86
2022/01/01 09:51:11;;;;;;;31.92;19.00;;;;;;;;;;5080314;28;20039;-85
2022/01/01 09:53:37;;;;;;;27.17;16.58;;;;;;;;;;5089240;28;20036;-86
2022/01/01 09:56:04;;;;;;;27.27;17.08;;;;;;;;;;5075712;28;20036;-86
2022/01/01 09:58:32;;;;;;;26.35;15.43;;;;;;;;;;5071762;28;20043;-86
2022/01/01 10:00:58;;;;;;;28.98;15.65;;;;;;;;;;5096764;28;20039;-85
2022/01/01 10:03:28;;;;;;;26.00;16.42;;;;;;;;;;5094019;28;20047;-86
2022/01/01 10:06:08;;;;;;;21.50;12.98;;;;;;;;;;5073750;28;20055;-87
2022/01/01 10:08:36;;;;;;;20.73;11.75;;;;;;;;;;5088731;28;20047;-86
2022/01/01 10:11:02;;;;;;;20.75;12.48;;;;;;;;;;5073987;28;20028;-87
2022/01/01 10:13:29;;;;;;;20.30;12.27;;;;;;;;;;5086181;28;20077;-87
2022/01/01 10:15:56;;;;;;;22.48;12.20;;;;;;;;;;5091758;28;20059;-86
2022/01/01 10:18:32;;;;;;;19.95;12.38;;;;;;;;;;5071374;28;20036;-86
2022/01/01 10:21:00;;;;;;;17.55;10.95;;;;;;;;;;5085802;28;20039;-86
2022/01/01 10:23:29;;;;;;;19.23;11.50;;;;;;;;;;5102852;27;20092;-82
2022/01/01 10:28:54;;;;;;;18.67;10.60;;;;;;;;;;5108194;27;20108;-84
2022/01/01 10:31:20;;;;;;;16.50;10.27;;;;;;;;;;5094326;28;20047;-87
2022/01/01 10:33:46;;;;;;;17.13;10.70;;;;;;;;;;5090498;28;20035;-87
2022/01/01 10:36:14;;;;;;;16.13;10.57;;;;;;;;;;5075086;28;20050;-86
2022/01/01 10:38:40;;;;;;;19.83;11.43;;;;;;;;;;5084683;28;21466;-86
2022/01/01 10:41:08;;;;;;;18.30;10.10;;;;;;;;;;5080704;28;20040;-86
2022/01/01 10:43:38;;;;;;;21.15;11.15;;;;;;;;;;5078059;28;20093;-85
2022/01/01 10:46:04;;;;;;;16.23;9.98;;;;;;;;;;5075779;28;20108;-86
2022/01/01 10:51:04;;;;;;;16.90;10.48;;;;;;;;;;5090825;28;20039;-88
2022/01/01 10:53:30;;;;;;;16.00;9.88;;;;;;;;;;5076344;28;20042;-87
2022/01/01 10:56:00;;;;;;;19.25;9.75;;;;;;;;;;5070900;28;20502;-86
2022/01/01 10:58:28;;;;;;;20.50;9.35;;;;;;;;;;5096234;28;20452;-87
2022/01/01 11:01:06;;;;;;;19.60;9.55;;;;;;;;;;5094643;28;20047;-87
2022/01/01 11:03:37;;;;;;;17.52;9.57;;;;;;;;;;5095966;28;20039;-86
2022/01/01 11:06:04;;;;;;;16.38;8.52;;;;;;;;;;5078941;28;20071;-86
2022/01/01 11:08:31;;;;;;;15.38;9.45;;;;;;;;;;5096008;28;20096;-84
2022/01/01 11:10:57;;;;;;;15.27;9.05;;;;;;;;;;5095735;28;20070;-84
2022/01/01 11:13:23;;;;;;;14.40;8.95;;;;;;;;;;5069170;28;20043;-87
2022/01/01 11:15:50;;;;;;;14.98;8.88;;;;;;;;;;5084526;28;20044;-86
2022/01/01 11:18:17;;;;;;;18.70;9.00;;;;;;;;;;5087338;28;20038;-88
2022/01/01 11:20:43;;;;;;;17.10;9.77;;;;;;;;;;5073396;28;20055;-88
2022/01/01 11:23:10;;;;;;;15.38;8.68;;;;;;;;;;5088952;28;20036;-86
2022/01/01 11:25:37;;;;;;;16.25;8.73;;;;;;;;;;5084066;28;20040;-89
2022/01/01 11:28:07;;;;;;;16.60;8.13;;;;;;;;;;5078899;28;20040;-86
2022/01/01 11:30:35;;;;;;;17.05;9.63;;;;;;;;;;5096110;28;20046;-85
2022/01/01 11:33:06;;;;;;;17.02;9.40;;;;;;;;;;5095253;28;20122;-87
2022/01/01 11:35:53;;;;;;;12.95;8.15;;;;;;;;;;5095833;28;20043;-87
2022/01/01 11:38:19;;;;;;;16.75;10.05;;;;;;;;;;5078344;28;20043;-87
2022/01/01 11:40:48;;;;;;;50.38;33.50;;;;;;;;;;5095414;28;20035;-85
2022/01/01 11:43:53;;;;;;;26.50;16.63;;;;;;;;;;5076935;28;20448;-87
2022/01/01 11:46:23;;;;;;;13.35;10.32;;;;;;;;;;5017446;28;20063;-87
2022/01/01 11:48:50;;;;;;;19.13;12.32;;;;;;;;;;5069550;28;20054;-88
2022/01/01 11:51:29;;;;;;;22.02;14.30;;;;;;;;;;5098952;28;20434;-87
2022/01/01 11:54:14;;;;;;;19.55;15.32;;;;;;;;;;5104432;27;20103;-82
2022/01/01 11:56:49;;;;;;;23.42;12.98;;;;;;;;;;5102567;28;20030;-82
2022/01/01 11:59:25;;;;;;;15.98;10.63;;;;;;;;;;5086960;28;20075;-88
2022/01/01 12:01:52;;;;;;;24.65;13.43;;;;;;;;;;5067833;28;20492;-87
2022/01/01 12:04:25;;;;;;;17.35;10.20;;;;;;;;;;5078315;28;20050;-83
2022/01/01 12:07:14;;;;;;;17.98;10.63;;;;;;;;;;5077636;28;20039;-87
2022/01/01 12:09:52;;;;;;;12.63;8.85;;;;;;;;;;5062738;28;20399;-86
2022/01/01 12:12:35;;;;;;;16.20;9.65;;;;;;;;;;5069875;28;20031;-86
2022/01/01 12:15:01;;;;;;;20.60;9.38;;;;;;;;;;5069941;28;20047;-87
2022/01/01 12:17:27;;;;;;;13.02;8.00;;;;;;;;;;5077420;28;20035;-87
2022/01/01 12:19:56;;;;;;;15.18;8.00;;;;;;;;;;5093761;28;20051;-86
2022/01/01 12:22:26;;;;;;;15.02;7.75;;;;;;;;;;5091064;28;20128;-86
2022/01/01 12:24:53;;;;;;;13.35;8.75;;;;;;;;;;5076572;28;20034;-86
2022/01/01 12:27:19;;;;;;;14.63;8.02;;;;;;;;;;5073752;28;20044;-86
2022/01/01 12:30:26;;;;;;;15.15;8.23;;;;;;;;;;5110702;28;20509;-87
2022/01/01 12:33:46;;;;;;;14.77;8.20;;;;;;;;;;5080244;28;20071;-87
2022/01/01 12:37:22;;;;;;;15.55;8.27;;;;;;;;;;5098797;28;20062;-88
2022/01/01 12:40:29;;;;;;;13.02;7.78;;;;;;;;;;5059065;28;20130;-86
2022/01/01 12:44:00;;;;;;;14.80;8.23;;;;;;;;;;4991392;28;20116;-86
2022/01/01 12:51:02;;;;;;;17.55;9.25;;;;;;;;;;5057020;28;20039;-88
2022/01/01 13:01:15;;;;;;;13.85;8.82;;;;;;;;;;4972931;28;20061;-86
2022/01/01 13:05:02;;;;;;;13.35;8.52;;;;;;;;;;4904512;29;20083;-87
2022/01/01 13:25:35;;;;;;;18.10;9.73;;;;;;;;;;4811889;29;20060;-86
2022/01/01 13:29:04;;;;;;;12.65;8.60;;;;;;;;;;4853103;29;20045;-86
2022/01/01 13:39:25;;;;;;;13.73;8.10;;;;;;;;;;4868705;29;20045;-83
2022/01/01 13:42:48;;;;;;;15.30;7.50;;;;;;;;;;4915361;29;20144;-84
2022/01/01 13:49:45;;;;;;;14.88;8.70;;;;;;;;;;4922726;29;20035;-84
2022/01/01 14:16:44;;;;;;;13.88;7.60;;;;;;;;;;4943769;29;20537;-83
2022/01/01 14:20:18;;;;;;;14.50;9.40;;;;;;;;;;4924266;29;20056;-83
2022/01/01 14:43:47;;;;;;;13.10;8.88;;;;;;;;;;5113180;22;20131;-31
2022/01/01 14:46:16;;;;;;;13.88;9.23;;;;;;;;;;5113324;28;20122;-31
2022/01/01 14:48:54;;;;;;;12.65;8.85;;;;;;;;;;5074287;28;20093;-33
2022/01/01 14:51:26;;;;;;;11.68;8.43;;;;;;;;;;5106267;28;20039;-34
2022/01/01 14:53:57;;;;;;;12.40;8.80;;;;;;;;;;5103224;28;20045;-32
2022/01/01 14:56:39;;;;;;;16.08;10.13;;;;;;;;;;5096180;28;20044;-34
2022/01/01 14:59:06;;;;;;;13.23;8.65;;;;;;;;;;5074578;28;20136;-31
2022/01/01 15:01:33;;;;;;;17.30;11.15;;;;;;;;;;5075587;28;20453;-34
2022/01/01 15:03:59;;;;;;;12.68;10.75;;;;;;;;;;5072230;28;20093;-34
2022/01/01 15:06:28;;;;;;;15.52;10.18;;;;;;;;;;5085172;28;20040;-31
2022/01/01 15:09:02;;;;;;;14.88;11.32;;;;;;;;;;5110791;28;20039;-31
2022/01/01 15:11:30;;;;;;;12.25;8.77;;;;;;;;;;5091997;28;20048;-32
2022/01/01 15:13:57;;;;;;;13.70;9.35;;;;;;;;;;5088956;28;20040;-32
2022/01/01 15:16:27;;;;;;;14.55;9.20;;;;;;;;;;5090866;28;20079;-32
2022/01/01 15:18:53;;;;;;;15.85;9.27;;;;;;;;;;5090367;28;20412;-32
2022/01/01 15:21:34;;;;;;;13.45;9.50;;;;;;;;;;5077932;28;20525;-32
2022/01/01 15:24:12;;;;;;;18.85;12.55;;;;;;;;;;5070245;28;20041;-32
2022/01/01 15:26:40;;;;;;;19.92;14.25;;;;;;;;;;5071969;28;20048;-32
2022/01/01 15:29:27;;;;;;;15.70;11.00;;;;;;;;;;5089907;28;20085;-32
2022/01/01 15:35:12;;;;;;;16.00;10.77;;;;;;;;;;5096524;28;20048;-31
2022/01/01 15:37:42;;;;;;;15.00;11.25;;;;;;;;;;5081027;28;20127;-31
2022/01/01 15:40:14;;;;;;;15.65;11.65;;;;;;;;;;5053830;28;20040;-35
2022/01/01 15:42:42;;;;;;;20.15;14.40;;;;;;;;;;5072445;28;20040;-40
2022/01/01 15:45:12;;;;;;;20.75;14.05;;;;;;;;;;5075360;28;20535;-36
2022/01/01 15:47:38;;;;;;;19.13;12.38;;;;;;;;;;5074442;28;20394;-37
2022/01/01 15:50:05;;;;;;;18.02;12.00;;;;;;;;;;5077411;28;20407;-38
2022/01/01 15:52:31;;;;;;;16.77;10.93;;;;;;;;;;5088522;28;20511;-35
2022/01/01 15:54:57;;;;;;;16.92;11.00;;;;;;;;;;5110450;28;20054;-34
2022/01/01 15:57:23;;;;;;;16.83;10.68;;;;;;;;;;5093283;28;20102;-34
2022/01/01 15:59:54;;;;;;;18.15;10.25;;;;;;;;;;5092107;28;20058;-38
2022/01/01 16:02:23;;;;;;;15.20;11.23;;;;;;;;;;5080902;28;20505;-35
2022/01/01 16:15:09;;;;;;;15.93;11.15;;;;;;;;;;5071468;28;20485;-35
2022/01/01 16:17:38;;;;;;;15.75;11.60;;;;;;;;;;5085053;28;20036;-38
2022/01/01 16:20:05;;;;;;;15.57;9.20;;;;;;;;;;5092329;28;20078;-38
2022/01/01 16:22:32;;;;;;;14.60;9.88;;;;;;;;;;5082310;28;20124;-35
2022/01/01 16:24:59;;;;;;;16.63;11.13;;;;;;;;;;5071317;28;20485;-39